sensor_id;sensor_type;location;lat;lon;timestamp;P1;durP1;ratioP1;P2;durP2;ratioP2
4290;SDS011;2159;50.906;7.152;2023-08-31T00:00:18;4.53;;;3.33;;
4290;SDS011;2159;50.906;7.152;2023-08-31T00:02:46;4.10;;;3.50;;
4290;SDS011;2159;50.906;7.152;2023-08-31T00:05:14;4.93;;;3.23;;
4290;SDS011;2159;50.906;7.152;2023-08-31T00:07:42;7.00;;;3.93;;
4290;SDS011;2159;50.906;7.152;2023-08-31T00:10:09;3.87;;;3.47;;
4290;SDS011;2159;50.906;7.152;2023-08-31T00:12:42;5.23;;;3.53;;
4290;SDS011;2159;50.906;7.152;2023-08-31T00:15:11;5.70;;;3.97;;
4290;SDS011;2159;50.906;7.152;2023-08-31T00:17:39;7.70;;;3.30;;
4290;SDS011;2159;50.906;7.152;2023-08-31T00:20:07;4.17;;;3.77;;
4290;SDS011;2159;50.906;7.152;2023-08-31T00:22:38;4.23;;;3.53;;
4290;SDS011;2159;50.906;7.152;2023-08-31T00:25:06;4.47;;;4.07;;
4290;SDS011;2159;50.906;7.152;2023-08-31T00:27:34;5.90;;;4.10;;
4290;SDS011;2159;50.906;7.152;2023-08-31T00:30:04;5.33;;;3.53;;
4290;SDS011;2159;50.906;7.152;2023-08-31T00:32:34;4.07;;;3.17;;
4290;SDS011;2159;50.906;7.152;2023-08-31T00:35:02;6.10;;;3.50;;
4290;SDS011;2159;50.906;7.152;2023-08-31T00:37:30;4.70;;;3.57;;
4290;SDS011;2159;50.906;7.152;2023-08-31T00:39:58;5.23;;;3.70;;
4290;SDS011;2159;50.906;7.152;2023-08-31T00:42:26;4.43;;;3.60;;
4290;SDS011;2159;50.906;7.152;2023-08-31T00:44:55;4.30;;;3.40;;
4290;SDS011;2159;50.906;7.152;2023-08-31T00:47:23;5.83;;;3.50;;
4290;SDS011;2159;50.906;7.152;2023-08-31T00:49:52;11.33;;;4.03;;
4290;SDS011;2159;50.906;7.152;2023-08-31T00:52:20;4.87;;;3.60;;
4290;SDS011;2159;50.906;7.152;2023-08-31T00:54:47;5.13;;;3.40;;
4290;SDS011;2159;50.906;7.152;2023-08-31T00:57:16;6.23;;;3.60;;
4290;SDS011;2159;50.906;7.152;2023-08-31T00:59:44;5.33;;;3.20;;
4290;SDS011;2159;50.906;7.152;2023-08-31T01:02:13;5.00;;;3.43;;
4290;SDS011;2159;50.906;7.152;2023-08-31T01:04:48;5.10;;;3.60;;
4290;SDS011;2159;50.906;7.152;2023-08-31T01:07:21;8.47;;;3.50;;
4290;SDS011;2159;50.906;7.152;2023-08-31T01:09:50;4.67;;;3.47;;
4290;SDS011;2159;50.906;7.152;2023-08-31T01:12:21;4.00;;;3.40;;
4290;SDS011;2159;50.906;7.152;2023-08-31T01:14:56;6.83;;;3.80;;
4290;SDS011;2159;50.906;7.152;2023-08-31T01:17:24;5.27;;;3.53;;
4290;SDS011;2159;50.906;7.152;2023-08-31T01:19:55;6.03;;;3.50;;
4290;SDS011;2159;50.906;7.152;2023-08-31T01:22:27;5.77;;;3.40;;
4290;SDS011;2159;50.906;7.152;2023-08-31T01:24:58;6.63;;;3.63;;
4290;SDS011;2159;50.906;7.152;2023-08-31T01:27:30;8.20;;;3.80;;
4290;SDS011;2159;50.906;7.152;2023-08-31T01:29:58;6.43;;;3.80;;
4290;SDS011;2159;50.906;7.152;2023-08-31T01:32:25;6.47;;;3.37;;
4290;SDS011;2159;50.906;7.152;2023-08-31T01:34:53;5.60;;;3.80;;
4290;SDS011;2159;50.906;7.152;2023-08-31T01:37:22;6.23;;;3.60;;
4290;SDS011;2159;50.906;7.152;2023-08-31T01:39:52;5.07;;;3.80;;
4290;SDS011;2159;50.906;7.152;2023-08-31T01:42:24;3.73;;;3.43;;
4290;SDS011;2159;50.906;7.152;2023-08-31T01:44:53;4.93;;;3.60;;
4290;SDS011;2159;50.906;7.152;2023-08-31T01:47:23;5.67;;;3.87;;
4290;SDS011;2159;50.906;7.152;2023-08-31T01:49:51;4.30;;;3.20;;
4290;SDS011;2159;50.906;7.152;2023-08-31T01:52:19;4.67;;;3.73;;
4290;SDS011;2159;50.906;7.152;2023-08-31T01:54:47;4.73;;;3.63;;
4290;SDS011;2159;50.906;7.152;2023-08-31T01:57:15;6.67;;;3.70;;
4290;SDS011;2159;50.906;7.152;2023-08-31T01:59:43;6.77;;;3.67;;
4290;SDS011;2159;50.906;7.152;2023-08-31T02:02:11;5.57;;;3.50;;
4290;SDS011;2159;50.906;7.152;2023-08-31T02:04:39;4.17;;;3.40;;
4290;SDS011;2159;50.906;7.152;2023-08-31T02:07:06;6.00;;;3.40;;
4290;SDS011;2159;50.906;7.152;2023-08-31T02:09:34;5.13;;;3.47;;
4290;SDS011;2159;50.906;7.152;2023-08-31T02:12:01;6.40;;;3.17;;
4290;SDS011;2159;50.906;7.152;2023-08-31T02:14:29;6.30;;;3.50;;
4290;SDS011;2159;50.906;7.152;2023-08-31T02:16:58;5.77;;;3.63;;
4290;SDS011;2159;50.906;7.152;2023-08-31T02:19:25;4.00;;;3.50;;
4290;SDS011;2159;50.906;7.152;2023-08-31T02:21:53;5.63;;;3.60;;
4290;SDS011;2159;50.906;7.152;2023-08-31T02:24:20;3.40;;;3.20;;
4290;SDS011;2159;50.906;7.152;2023-08-31T02:26:48;7.60;;;3.93;;
4290;SDS011;2159;50.906;7.152;2023-08-31T02:29:15;5.10;;;3.60;;
4290;SDS011;2159;50.906;7.152;2023-08-31T02:31:43;5.93;;;3.50;;
4290;SDS011;2159;50.906;7.152;2023-08-31T02:34:12;6.43;;;3.60;;
4290;SDS011;2159;50.906;7.152;2023-08-31T02:36:40;10.47;;;3.50;;
4290;SDS011;2159;50.906;7.152;2023-08-31T02:39:08;4.10;;;3.77;;
4290;SDS011;2159;50.906;7.152;2023-08-31T02:41:35;5.43;;;3.70;;
4290;SDS011;2159;50.906;7.152;2023-08-31T02:44:03;5.60;;;3.40;;
4290;SDS011;2159;50.906;7.152;2023-08-31T02:46:31;3.70;;;3.40;;
4290;SDS011;2159;50.906;7.152;2023-08-31T02:48:59;9.00;;;3.53;;
4290;SDS011;2159;50.906;7.152;2023-08-31T02:51:28;5.20;;;3.10;;
4290;SDS011;2159;50.906;7.152;2023-08-31T02:53:55;5.33;;;3.23;;
4290;SDS011;2159;50.906;7.152;2023-08-31T02:56:23;4.77;;;3.60;;
4290;SDS011;2159;50.906;7.152;2023-08-31T02:58:51;5.83;;;3.43;;
4290;SDS011;2159;50.906;7.152;2023-08-31T03:01:18;5.27;;;3.60;;
4290;SDS011;2159;50.906;7.152;2023-08-31T03:03:46;4.10;;;3.70;;
4290;SDS011;2159;50.906;7.152;2023-08-31T03:06:13;4.07;;;3.67;;
4290;SDS011;2159;50.906;7.152;2023-08-31T03:08:43;10.70;;;3.17;;
4290;SDS011;2159;50.906;7.152;2023-08-31T03:11:11;3.10;;;2.83;;
4290;SDS011;2159;50.906;7.152;2023-08-31T03:13:40;7.13;;;3.30;;
4290;SDS011;2159;50.906;7.152;2023-08-31T03:16:08;3.50;;;2.80;;
4290;SDS011;2159;50.906;7.152;2023-08-31T03:18:36;5.50;;;3.40;;
4290;SDS011;2159;50.906;7.152;2023-08-31T03:21:03;4.60;;;3.80;;
4290;SDS011;2159;50.906;7.152;2023-08-31T03:23:31;4.90;;;3.40;;
4290;SDS011;2159;50.906;7.152;2023-08-31T03:25:59;7.57;;;3.67;;
4290;SDS011;2159;50.906;7.152;2023-08-31T03:28:29;3.50;;;3.20;;
4290;SDS011;2159;50.906;7.152;2023-08-31T03:30:57;5.37;;;3.70;;
4290;SDS011;2159;50.906;7.152;2023-08-31T03:33:25;3.90;;;3.47;;
4290;SDS011;2159;50.906;7.152;2023-08-31T03:35:53;4.47;;;3.80;;
4290;SDS011;2159;50.906;7.152;2023-08-31T03:38:21;7.43;;;3.83;;
4290;SDS011;2159;50.906;7.152;2023-08-31T03:40:54;3.57;;;3.23;;
4290;SDS011;2159;50.906;7.152;2023-08-31T03:43:26;6.30;;;3.87;;
4290;SDS011;2159;50.906;7.152;2023-08-31T03:45:54;3.63;;;3.40;;
4290;SDS011;2159;50.906;7.152;2023-08-31T03:48:23;3.60;;;3.07;;
4290;SDS011;2159;50.906;7.152;2023-08-31T03:50:50;3.70;;;3.37;;
4290;SDS011;2159;50.906;7.152;2023-08-31T03:53:18;4.30;;;3.50;;
4290;SDS011;2159;50.906;7.152;2023-08-31T03:55:45;4.33;;;3.27;;
4290;SDS011;2159;50.906;7.152;2023-08-31T03:58:13;6.20;;;3.40;;
4290;SDS011;2159;50.906;7.152;2023-08-31T04:00:42;4.33;;;3.07;;
4290;SDS011;2159;50.906;7.152;2023-08-31T04:03:10;3.40;;;3.10;;
4290;SDS011;2159;50.906;7.152;2023-08-31T04:05:38;7.50;;;3.23;;
4290;SDS011;2159;50.906;7.152;2023-08-31T04:08:06;3.83;;;3.33;;
4290;SDS011;2159;50.906;7.152;2023-08-31T04:10:34;5.60;;;3.93;;
4290;SDS011;2159;50.906;7.152;2023-08-31T04:13:01;4.20;;;3.40;;
4290;SDS011;2159;50.906;7.152;2023-08-31T04:15:29;4.40;;;3.20;;
4290;SDS011;2159;50.906;7.152;2023-08-31T04:17:58;3.40;;;3.17;;
4290;SDS011;2159;50.906;7.152;2023-08-31T04:20:26;7.37;;;3.10;;
4290;SDS011;2159;50.906;7.152;2023-08-31T04:22:53;5.07;;;3.67;;
4290;SDS011;2159;50.906;7.152;2023-08-31T04:25:21;3.77;;;3.37;;
4290;SDS011;2159;50.906;7.152;2023-08-31T04:27:48;5.57;;;3.23;;
4290;SDS011;2159;50.906;7.152;2023-08-31T04:30:16;7.67;;;3.37;;
4290;SDS011;2159;50.906;7.152;2023-08-31T04:32:44;3.67;;;3.00;;
4290;SDS011;2159;50.906;7.152;2023-08-31T04:35:14;3.83;;;3.30;;
4290;SDS011;2159;50.906;7.152;2023-08-31T04:37:42;8.93;;;3.30;;
4290;SDS011;2159;50.906;7.152;2023-08-31T04:40:11;4.63;;;3.20;;
4290;SDS011;2159;50.906;7.152;2023-08-31T04:42:39;3.30;;;3.00;;
4290;SDS011;2159;50.906;7.152;2023-08-31T04:45:07;3.07;;;2.87;;
4290;SDS011;2159;50.906;7.152;2023-08-31T04:47:34;5.30;;;2.90;;
4290;SDS011;2159;50.906;7.152;2023-08-31T04:50:02;5.83;;;3.00;;
4290;SDS011;2159;50.906;7.152;2023-08-31T04:52:34;3.23;;;3.03;;
4290;SDS011;2159;50.906;7.152;2023-08-31T04:55:02;4.80;;;3.20;;
4290;SDS011;2159;50.906;7.152;2023-08-31T04:57:30;3.33;;;3.07;;
4290;SDS011;2159;50.906;7.152;2023-08-31T04:59:57;6.33;;;3.13;;
4290;SDS011;2159;50.906;7.152;2023-08-31T05:02:25;7.03;;;3.43;;
4290;SDS011;2159;50.906;7.152;2023-08-31T05:04:53;9.33;;;3.37;;
4290;SDS011;2159;50.906;7.152;2023-08-31T05:07:20;4.10;;;3.03;;
4290;SDS011;2159;50.906;7.152;2023-08-31T05:09:49;4.70;;;3.50;;
4290;SDS011;2159;50.906;7.152;2023-08-31T05:12:17;4.43;;;3.40;;
4290;SDS011;2159;50.906;7.152;2023-08-31T05:14:45;5.73;;;3.67;;
4290;SDS011;2159;50.906;7.152;2023-08-31T05:17:12;3.80;;;3.33;;
4290;SDS011;2159;50.906;7.152;2023-08-31T05:19:40;6.27;;;3.60;;
4290;SDS011;2159;50.906;7.152;2023-08-31T05:22:07;8.57;;;3.63;;
4290;SDS011;2159;50.906;7.152;2023-08-31T05:24:35;6.70;;;3.50;;
4290;SDS011;2159;50.906;7.152;2023-08-31T05:27:04;4.93;;;3.60;;
4290;SDS011;2159;50.906;7.152;2023-08-31T05:29:32;8.57;;;3.83;;
4290;SDS011;2159;50.906;7.152;2023-08-31T05:31:59;4.77;;;3.57;;
4290;SDS011;2159;50.906;7.152;2023-08-31T05:34:27;4.40;;;3.53;;
4290;SDS011;2159;50.906;7.152;2023-08-31T05:36:54;4.07;;;3.67;;
4290;SDS011;2159;50.906;7.152;2023-08-31T05:39:22;8.10;;;3.57;;
4290;SDS011;2159;50.906;7.152;2023-08-31T05:41:49;4.40;;;3.87;;
4290;SDS011;2159;50.906;7.152;2023-08-31T05:44:18;5.47;;;3.80;;
4290;SDS011;2159;50.906;7.152;2023-08-31T05:46:46;5.43;;;3.90;;
4290;SDS011;2159;50.906;7.152;2023-08-31T05:49:14;5.10;;;4.07;;
4290;SDS011;2159;50.906;7.152;2023-08-31T05:51:41;6.23;;;4.43;;
4290;SDS011;2159;50.906;7.152;2023-08-31T05:54:09;4.40;;;4.00;;
4290;SDS011;2159;50.906;7.152;2023-08-31T05:56:39;4.37;;;3.97;;
4290;SDS011;2159;50.906;7.152;2023-08-31T05:59:07;5.20;;;3.67;;
4290;SDS011;2159;50.906;7.152;2023-08-31T06:01:36;4.50;;;4.03;;
4290;SDS011;2159;50.906;7.152;2023-08-31T06:04:03;3.97;;;3.57;;
4290;SDS011;2159;50.906;7.152;2023-08-31T06:06:31;4.33;;;3.93;;
4290;SDS011;2159;50.906;7.152;2023-08-31T06:08:59;5.60;;;4.00;;
4290;SDS011;2159;50.906;7.152;2023-08-31T06:11:27;5.00;;;4.20;;
4290;SDS011;2159;50.906;7.152;2023-08-31T06:13:55;4.33;;;3.67;;
4290;SDS011;2159;50.906;7.152;2023-08-31T06:16:23;5.90;;;4.10;;
4290;SDS011;2159;50.906;7.152;2023-08-31T06:18:52;6.37;;;3.83;;
4290;SDS011;2159;50.906;7.152;2023-08-31T06:21:20;4.63;;;4.20;;
4290;SDS011;2159;50.906;7.152;2023-08-31T06:23:48;5.23;;;3.47;;
4290;SDS011;2159;50.906;7.152;2023-08-31T06:26:15;6.27;;;3.50;;
4290;SDS011;2159;50.906;7.152;2023-08-31T06:28:43;3.57;;;3.27;;
4290;SDS011;2159;50.906;7.152;2023-08-31T06:31:10;7.07;;;3.75;;
4290;SDS011;2159;50.906;7.152;2023-08-31T06:33:38;4.10;;;3.70;;
4290;SDS011;2159;50.906;7.152;2023-08-31T06:36:07;4.70;;;3.20;;
4290;SDS011;2159;50.906;7.152;2023-08-31T06:38:34;5.50;;;3.33;;
4290;SDS011;2159;50.906;7.152;2023-08-31T06:41:02;5.40;;;3.50;;
4290;SDS011;2159;50.906;7.152;2023-08-31T06:43:30;4.63;;;3.47;;
4290;SDS011;2159;50.906;7.152;2023-08-31T06:45:57;6.90;;;3.40;;
4290;SDS011;2159;50.906;7.152;2023-08-31T06:48:45;5.27;;;3.30;;
4290;SDS011;2159;50.906;7.152;2023-08-31T06:51:14;3.50;;;3.20;;
4290;SDS011;2159;50.906;7.152;2023-08-31T06:53:43;5.23;;;3.63;;
4290;SDS011;2159;50.906;7.152;2023-08-31T06:56:10;8.23;;;3.47;;
4290;SDS011;2159;50.906;7.152;2023-08-31T06:58:38;3.50;;;3.20;;
4290;SDS011;2159;50.906;7.152;2023-08-31T07:01:06;5.10;;;3.10;;
4290;SDS011;2159;50.906;7.152;2023-08-31T07:03:33;3.87;;;3.00;;
4290;SDS011;2159;50.906;7.152;2023-08-31T07:06:01;5.93;;;3.37;;
4290;SDS011;2159;50.906;7.152;2023-08-31T07:08:30;5.10;;;3.40;;
4290;SDS011;2159;50.906;7.152;2023-08-31T07:10:58;3.63;;;3.10;;
4290;SDS011;2159;50.906;7.152;2023-08-31T07:13:25;3.80;;;3.07;;
4290;SDS011;2159;50.906;7.152;2023-08-31T07:15:53;7.60;;;3.23;;
4290;SDS011;2159;50.906;7.152;2023-08-31T07:18:21;5.83;;;3.37;;
4290;SDS011;2159;50.906;7.152;2023-08-31T07:20:48;6.43;;;3.50;;
4290;SDS011;2159;50.906;7.152;2023-08-31T07:23:16;3.93;;;3.30;;
4290;SDS011;2159;50.906;7.152;2023-08-31T07:25:45;9.40;;;4.00;;
4290;SDS011;2159;50.906;7.152;2023-08-31T07:28:13;3.87;;;3.00;;
4290;SDS011;2159;50.906;7.152;2023-08-31T07:30:40;4.47;;;3.40;;
4290;SDS011;2159;50.906;7.152;2023-08-31T07:33:08;4.00;;;3.13;;
4290;SDS011;2159;50.906;7.152;2023-08-31T07:35:55;4.47;;;3.40;;
4290;SDS011;2159;50.906;7.152;2023-08-31T07:38:24;6.03;;;3.53;;
4290;SDS011;2159;50.906;7.152;2023-08-31T07:40:53;4.77;;;3.17;;
4290;SDS011;2159;50.906;7.152;2023-08-31T07:43:21;2.97;;;2.73;;
4290;SDS011;2159;50.906;7.152;2023-08-31T07:45:48;4.70;;;3.17;;
4290;SDS011;2159;50.906;7.152;2023-08-31T07:48:16;6.80;;;3.23;;
4290;SDS011;2159;50.906;7.152;2023-08-31T07:50:43;4.73;;;2.87;;
4290;SDS011;2159;50.906;7.152;2023-08-31T07:53:11;6.70;;;2.60;;
4290;SDS011;2159;50.906;7.152;2023-08-31T07:55:39;3.63;;;2.67;;
4290;SDS011;2159;50.906;7.152;2023-08-31T07:58:08;7.20;;;2.83;;
4290;SDS011;2159;50.906;7.152;2023-08-31T08:00:36;2.80;;;2.43;;
4290;SDS011;2159;50.906;7.152;2023-08-31T08:03:04;3.70;;;2.47;;
4290;SDS011;2159;50.906;7.152;2023-08-31T08:05:31;4.67;;;2.50;;
4290;SDS011;2159;50.906;7.152;2023-08-31T08:07:59;6.77;;;2.30;;
4290;SDS011;2159;50.906;7.152;2023-08-31T08:10:26;9.80;;;2.63;;
4290;SDS011;2159;50.906;7.152;2023-08-31T08:12:54;4.20;;;2.77;;
4290;SDS011;2159;50.906;7.152;2023-08-31T08:15:26;6.30;;;2.87;;
4290;SDS011;2159;50.906;7.152;2023-08-31T08:17:54;5.70;;;2.53;;
4290;SDS011;2159;50.906;7.152;2023-08-31T08:20:24;3.90;;;2.33;;
4290;SDS011;2159;50.906;7.152;2023-08-31T08:22:51;3.90;;;2.47;;
4290;SDS011;2159;50.906;7.152;2023-08-31T08:25:19;6.00;;;2.30;;
4290;SDS011;2159;50.906;7.152;2023-08-31T08:27:47;5.43;;;2.93;;
4290;SDS011;2159;50.906;7.152;2023-08-31T08:30:15;2.50;;;2.30;;
4290;SDS011;2159;50.906;7.152;2023-08-31T08:32:44;3.07;;;1.90;;
4290;SDS011;2159;50.906;7.152;2023-08-31T08:35:12;3.73;;;2.10;;
4290;SDS011;2159;50.906;7.152;2023-08-31T08:37:40;4.30;;;2.17;;
4290;SDS011;2159;50.906;7.152;2023-08-31T08:40:08;4.03;;;2.10;;
4290;SDS011;2159;50.906;7.152;2023-08-31T08:42:38;3.47;;;2.17;;
4290;SDS011;2159;50.906;7.152;2023-08-31T08:45:07;2.87;;;1.93;;
4290;SDS011;2159;50.906;7.152;2023-08-31T08:47:35;4.30;;;2.43;;
4290;SDS011;2159;50.906;7.152;2023-08-31T08:50:05;6.00;;;2.00;;
4290;SDS011;2159;50.906;7.152;2023-08-31T08:52:33;3.77;;;1.87;;
4290;SDS011;2159;50.906;7.152;2023-08-31T08:55:01;4.77;;;1.77;;
4290;SDS011;2159;50.906;7.152;2023-08-31T08:57:30;5.20;;;2.10;;
4290;SDS011;2159;50.906;7.152;2023-08-31T08:59:58;5.47;;;2.20;;
4290;SDS011;2159;50.906;7.152;2023-08-31T09:02:25;2.53;;;1.80;;
4290;SDS011;2159;50.906;7.152;2023-08-31T09:04:53;4.20;;;1.97;;
4290;SDS011;2159;50.906;7.152;2023-08-31T09:07:23;12.13;;;2.13;;
4290;SDS011;2159;50.906;7.152;2023-08-31T09:09:51;3.87;;;2.03;;
4290;SDS011;2159;50.906;7.152;2023-08-31T09:12:20;4.37;;;1.67;;
4290;SDS011;2159;50.906;7.152;2023-08-31T09:14:57;4.40;;;1.70;;
4290;SDS011;2159;50.906;7.152;2023-08-31T09:17:25;2.57;;;1.77;;
4290;SDS011;2159;50.906;7.152;2023-08-31T09:19:59;4.27;;;1.70;;
4290;SDS011;2159;50.906;7.152;2023-08-31T09:22:31;4.53;;;1.80;;
4290;SDS011;2159;50.906;7.152;2023-08-31T09:24:59;4.00;;;1.90;;
4290;SDS011;2159;50.906;7.152;2023-08-31T09:27:26;11.53;;;2.50;;
4290;SDS011;2159;50.906;7.152;2023-08-31T09:29:54;2.93;;;1.70;;
4290;SDS011;2159;50.906;7.152;2023-08-31T09:32:21;6.77;;;1.50;;
4290;SDS011;2159;50.906;7.152;2023-08-31T09:34:49;3.27;;;1.60;;
4290;SDS011;2159;50.906;7.152;2023-08-31T09:37:33;6.37;;;1.90;;
4290;SDS011;2159;50.906;7.152;2023-08-31T09:40:01;2.77;;;1.40;;
4290;SDS011;2159;50.906;7.152;2023-08-31T09:42:35;3.23;;;1.40;;
4290;SDS011;2159;50.906;7.152;2023-08-31T09:45:03;2.80;;;2.10;;
4290;SDS011;2159;50.906;7.152;2023-08-31T09:47:31;2.40;;;1.70;;
4290;SDS011;2159;50.906;7.152;2023-08-31T09:49:59;1.80;;;1.60;;
4290;SDS011;2159;50.906;7.152;2023-08-31T09:52:27;3.30;;;1.70;;
4290;SDS011;2159;50.906;7.152;2023-08-31T09:54:56;2.70;;;1.30;;
4290;SDS011;2159;50.906;7.152;2023-08-31T09:57:26;3.03;;;1.80;;
4290;SDS011;2159;50.906;7.152;2023-08-31T10:00:12;3.57;;;1.80;;
4290;SDS011;2159;50.906;7.152;2023-08-31T10:02:41;3.90;;;1.60;;
4290;SDS011;2159;50.906;7.152;2023-08-31T10:05:10;6.60;;;1.23;;
4290;SDS011;2159;50.906;7.152;2023-08-31T10:07:37;6.50;;;1.70;;
4290;SDS011;2159;50.906;7.152;2023-08-31T10:10:07;4.27;;;1.50;;
4290;SDS011;2159;50.906;7.152;2023-08-31T10:12:35;4.23;;;1.67;;
4290;SDS011;2159;50.906;7.152;2023-08-31T10:15:03;3.77;;;1.50;;
4290;SDS011;2159;50.906;7.152;2023-08-31T10:17:31;5.77;;;1.70;;
4290;SDS011;2159;50.906;7.152;2023-08-31T10:19:59;3.40;;;1.60;;
4290;SDS011;2159;50.906;7.152;2023-08-31T10:22:27;4.47;;;1.70;;
4290;SDS011;2159;50.906;7.152;2023-08-31T10:24:57;1.47;;;1.33;;
4290;SDS011;2159;50.906;7.152;2023-08-31T10:27:28;1.30;;;1.20;;
4290;SDS011;2159;50.906;7.152;2023-08-31T10:29:55;1.80;;;1.60;;
4290;SDS011;2159;50.906;7.152;2023-08-31T10:32:23;2.80;;;1.50;;
4290;SDS011;2159;50.906;7.152;2023-08-31T10:37:42;3.40;;;1.40;;
4290;SDS011;2159;50.906;7.152;2023-08-31T10:40:10;2.40;;;1.53;;
4290;SDS011;2159;50.906;7.152;2023-08-31T10:42:43;1.83;;;1.40;;
4290;SDS011;2159;50.906;7.152;2023-08-31T10:45:11;2.60;;;1.60;;
4290;SDS011;2159;50.906;7.152;2023-08-31T10:47:40;4.70;;;2.00;;
4290;SDS011;2159;50.906;7.152;2023-08-31T10:50:19;1.70;;;1.60;;
4290;SDS011;2159;50.906;7.152;2023-08-31T10:52:46;2.33;;;1.67;;
4290;SDS011;2159;50.906;7.152;2023-08-31T10:55:14;2.70;;;1.77;;
4290;SDS011;2159;50.906;7.152;2023-08-31T10:57:44;5.83;;;1.60;;
4290;SDS011;2159;50.906;7.152;2023-08-31T11:00:12;1.93;;;1.60;;
4290;SDS011;2159;50.906;7.152;2023-08-31T11:02:41;3.93;;;1.40;;
4290;SDS011;2159;50.906;7.152;2023-08-31T11:05:10;5.07;;;1.90;;
4290;SDS011;2159;50.906;7.152;2023-08-31T11:07:38;1.83;;;1.50;;
4290;SDS011;2159;50.906;7.152;2023-08-31T11:10:10;2.27;;;1.37;;
4290;SDS011;2159;50.906;7.152;2023-08-31T11:12:39;3.37;;;1.60;;
4290;SDS011;2159;50.906;7.152;2023-08-31T11:15:08;2.50;;;1.70;;
4290;SDS011;2159;50.906;7.152;2023-08-31T11:17:39;2.10;;;1.40;;
4290;SDS011;2159;50.906;7.152;2023-08-31T11:20:07;2.40;;;1.50;;
4290;SDS011;2159;50.906;7.152;2023-08-31T11:22:38;2.47;;;1.40;;
4290;SDS011;2159;50.906;7.152;2023-08-31T11:25:06;5.40;;;2.03;;
4290;SDS011;2159;50.906;7.152;2023-08-31T11:27:34;1.90;;;1.80;;
4290;SDS011;2159;50.906;7.152;2023-08-31T11:30:01;2.87;;;1.67;;
4290;SDS011;2159;50.906;7.152;2023-08-31T11:32:30;5.83;;;1.50;;
4290;SDS011;2159;50.906;7.152;2023-08-31T11:34:58;2.30;;;1.60;;
4290;SDS011;2159;50.906;7.152;2023-08-31T11:37:27;2.60;;;1.50;;
4290;SDS011;2159;50.906;7.152;2023-08-31T11:39:57;2.00;;;1.53;;
4290;SDS011;2159;50.906;7.152;2023-08-31T11:42:27;3.57;;;1.50;;
4290;SDS011;2159;50.906;7.152;2023-08-31T11:44:55;3.33;;;1.70;;
4290;SDS011;2159;50.906;7.152;2023-08-31T11:47:22;5.40;;;1.93;;
4290;SDS011;2159;50.906;7.152;2023-08-31T11:49:52;3.10;;;1.60;;
4290;SDS011;2159;50.906;7.152;2023-08-31T11:52:20;3.50;;;1.80;;
4290;SDS011;2159;50.906;7.152;2023-08-31T11:54:47;4.80;;;2.00;;
4290;SDS011;2159;50.906;7.152;2023-08-31T11:57:19;1.97;;;1.73;;
4290;SDS011;2159;50.906;7.152;2023-08-31T11:59:46;4.07;;;1.90;;
4290;SDS011;2159;50.906;7.152;2023-08-31T12:02:18;3.47;;;2.27;;
4290;SDS011;2159;50.906;7.152;2023-08-31T12:04:46;2.27;;;1.77;;
4290;SDS011;2159;50.906;7.152;2023-08-31T12:07:17;2.03;;;1.70;;
4290;SDS011;2159;50.906;7.152;2023-08-31T12:09:44;3.63;;;1.90;;
4290;SDS011;2159;50.906;7.152;2023-08-31T12:12:13;2.07;;;1.90;;
4290;SDS011;2159;50.906;7.152;2023-08-31T12:14:41;2.40;;;1.60;;
4290;SDS011;2159;50.906;7.152;2023-08-31T12:17:08;2.60;;;1.60;;
4290;SDS011;2159;50.906;7.152;2023-08-31T12:19:39;2.13;;;2.00;;
4290;SDS011;2159;50.906;7.152;2023-08-31T12:22:07;2.80;;;2.00;;
4290;SDS011;2159;50.906;7.152;2023-08-31T12:24:40;2.17;;;1.60;;
4290;SDS011;2159;50.906;7.152;2023-08-31T12:27:08;5.43;;;1.70;;
4290;SDS011;2159;50.906;7.152;2023-08-31T12:29:36;3.53;;;1.50;;
4290;SDS011;2159;50.906;7.152;2023-08-31T12:32:04;3.23;;;1.60;;
4290;SDS011;2159;50.906;7.152;2023-08-31T12:34:32;1.80;;;1.53;;
4290;SDS011;2159;50.906;7.152;2023-08-31T12:37:01;1.90;;;1.20;;
4290;SDS011;2159;50.906;7.152;2023-08-31T12:39:30;6.70;;;1.57;;
4290;SDS011;2159;50.906;7.152;2023-08-31T12:41:59;1.73;;;1.30;;
4290;SDS011;2159;50.906;7.152;2023-08-31T12:44:42;2.40;;;1.67;;
4290;SDS011;2159;50.906;7.152;2023-08-31T12:47:09;2.07;;;1.70;;
4290;SDS011;2159;50.906;7.152;2023-08-31T12:49:37;1.83;;;1.70;;
4290;SDS011;2159;50.906;7.152;2023-08-31T12:52:04;1.53;;;1.43;;
4290;SDS011;2159;50.906;7.152;2023-08-31T12:54:32;1.60;;;1.50;;
4290;SDS011;2159;50.906;7.152;2023-08-31T12:57:01;3.30;;;1.90;;
4290;SDS011;2159;50.906;7.152;2023-08-31T12:59:29;3.90;;;1.93;;
4290;SDS011;2159;50.906;7.152;2023-08-31T13:01:56;3.23;;;2.00;;
4290;SDS011;2159;50.906;7.152;2023-08-31T13:04:24;4.20;;;1.97;;
4290;SDS011;2159;50.906;7.152;2023-08-31T13:06:51;2.10;;;1.93;;
4290;SDS011;2159;50.906;7.152;2023-08-31T13:09:19;2.20;;;1.80;;
4290;SDS011;2159;50.906;7.152;2023-08-31T13:11:47;3.30;;;1.90;;
4290;SDS011;2159;50.906;7.152;2023-08-31T13:14:15;3.80;;;1.70;;
4290;SDS011;2159;50.906;7.152;2023-08-31T13:16:43;6.63;;;2.17;;
4290;SDS011;2159;50.906;7.152;2023-08-31T13:19:11;6.27;;;2.00;;
4290;SDS011;2159;50.906;7.152;2023-08-31T13:21:38;2.50;;;2.10;;
4290;SDS011;2159;50.906;7.152;2023-08-31T13:24:06;2.87;;;1.77;;
4290;SDS011;2159;50.906;7.152;2023-08-31T13:26:34;2.40;;;1.93;;
4290;SDS011;2159;50.906;7.152;2023-08-31T13:29:01;3.63;;;2.00;;
4290;SDS011;2159;50.906;7.152;2023-08-31T13:31:32;4.40;;;1.93;;
4290;SDS011;2159;50.906;7.152;2023-08-31T13:34:00;4.07;;;1.77;;
4290;SDS011;2159;50.906;7.152;2023-08-31T13:36:28;2.10;;;1.90;;
4290;SDS011;2159;50.906;7.152;2023-08-31T13:38:55;4.00;;;2.00;;
4290;SDS011;2159;50.906;7.152;2023-08-31T13:41:23;3.23;;;1.90;;
4290;SDS011;2159;50.906;7.152;2023-08-31T13:43:50;3.60;;;2.33;;
4290;SDS011;2159;50.906;7.152;2023-08-31T13:46:18;3.10;;;1.90;;
4290;SDS011;2159;50.906;7.152;2023-08-31T13:48:47;2.60;;;2.00;;
4290;SDS011;2159;50.906;7.152;2023-08-31T13:51:15;3.37;;;2.10;;
4290;SDS011;2159;50.906;7.152;2023-08-31T13:53:42;4.60;;;2.20;;
4290;SDS011;2159;50.906;7.152;2023-08-31T13:56:10;3.80;;;2.20;;
4290;SDS011;2159;50.906;7.152;2023-08-31T13:58:37;2.60;;;2.13;;
4290;SDS011;2159;50.906;7.152;2023-08-31T14:01:05;3.33;;;2.20;;
4290;SDS011;2159;50.906;7.152;2023-08-31T14:03:33;7.07;;;2.30;;
4290;SDS011;2159;50.906;7.152;2023-08-31T14:06:02;5.50;;;1.97;;
4290;SDS011;2159;50.906;7.152;2023-08-31T14:08:32;2.40;;;1.97;;
4290;SDS011;2159;50.906;7.152;2023-08-31T14:11:00;4.80;;;2.00;;
4290;SDS011;2159;50.906;7.152;2023-08-31T14:13:27;5.97;;;2.00;;
4290;SDS011;2159;50.906;7.152;2023-08-31T14:15:55;3.93;;;2.00;;
4290;SDS011;2159;50.906;7.152;2023-08-31T14:18:23;5.47;;;1.90;;
4290;SDS011;2159;50.906;7.152;2023-08-31T14:20:51;2.60;;;2.00;;
4290;SDS011;2159;50.906;7.152;2023-08-31T14:23:20;6.27;;;2.30;;
4290;SDS011;2159;50.906;7.152;2023-08-31T14:25:48;3.87;;;1.97;;
4290;SDS011;2159;50.906;7.152;2023-08-31T14:28:16;3.43;;;2.13;;
4290;SDS011;2159;50.906;7.152;2023-08-31T14:30:46;3.07;;;1.80;;
4290;SDS011;2159;50.906;7.152;2023-08-31T14:33:14;3.27;;;2.00;;
4290;SDS011;2159;50.906;7.152;2023-08-31T14:35:42;3.43;;;2.50;;
4290;SDS011;2159;50.906;7.152;2023-08-31T14:38:10;2.67;;;2.10;;
4290;SDS011;2159;50.906;7.152;2023-08-31T14:40:39;4.83;;;2.40;;
4290;SDS011;2159;50.906;7.152;2023-08-31T14:43:07;3.83;;;2.10;;
4290;SDS011;2159;50.906;7.152;2023-08-31T14:45:36;2.80;;;2.07;;
4290;SDS011;2159;50.906;7.152;2023-08-31T14:48:04;1.93;;;1.60;;
4290;SDS011;2159;50.906;7.152;2023-08-31T14:50:32;5.60;;;2.63;;
4290;SDS011;2159;50.906;7.152;2023-08-31T14:53:00;4.33;;;1.90;;
4290;SDS011;2159;50.906;7.152;2023-08-31T14:55:27;4.10;;;1.97;;
4290;SDS011;2159;50.906;7.152;2023-08-31T14:57:56;3.13;;;1.80;;
4290;SDS011;2159;50.906;7.152;2023-08-31T15:00:24;1.93;;;1.73;;
4290;SDS011;2159;50.906;7.152;2023-08-31T15:02:51;1.70;;;1.60;;
4290;SDS011;2159;50.906;7.152;2023-08-31T15:05:19;2.03;;;1.53;;
4290;SDS011;2159;50.906;7.152;2023-08-31T15:07:46;2.20;;;1.60;;
4290;SDS011;2159;50.906;7.152;2023-08-31T15:10:14;2.47;;;1.90;;
4290;SDS011;2159;50.906;7.152;2023-08-31T15:12:43;1.70;;;1.60;;
4290;SDS011;2159;50.906;7.152;2023-08-31T15:15:12;3.00;;;1.80;;
4290;SDS011;2159;50.906;7.152;2023-08-31T15:17:39;3.83;;;1.97;;
4290;SDS011;2159;50.906;7.152;2023-08-31T15:20:08;3.07;;;1.67;;
4290;SDS011;2159;50.906;7.152;2023-08-31T15:22:35;4.67;;;1.90;;
4290;SDS011;2159;50.906;7.152;2023-08-31T15:25:03;1.70;;;1.60;;